createdAt,value
2018-09-24T00:00:30.434Z,99.99
2018-09-24T00:02:24.142Z,99.99
2018-09-24T00:03:23.880Z,99.99
2018-09-24T00:05:17.148Z,99.99
2018-09-24T00:06:17.160Z,99.99
2018-09-24T00:08:09.815Z,99.99
2018-09-24T00:09:10.026Z,99.99
2018-09-24T00:11:03.398Z,99.99
2018-09-24T00:12:02.554Z,99.99
2018-09-24T00:13:56.804Z,99.99
2018-09-24T00:14:56.177Z,99.99
2018-09-24T00:16:49.144Z,99.99
2018-09-24T00:17:49.075Z,99.99
2018-09-24T00:19:41.939Z,99.99
2018-09-24T00:20:41.970Z,99.99
2018-09-24T00:22:34.520Z,99.99
2018-09-24T00:23:34.487Z,99.99
2018-09-24T00:25:27.713Z,99.99
2018-09-24T00:26:27.633Z,99.99
2018-09-24T00:28:21.043Z,99.99
2018-09-24T00:29:20.926Z,99.99
2018-09-24T00:31:14.360Z,99.99
2018-09-24T00:32:14.327Z,99.99
2018-09-24T00:34:07.768Z,99.99
2018-09-24T00:35:07.705Z,99.99
2018-09-24T00:37:00.284Z,99.99
2018-09-24T00:38:00.564Z,99.99
2018-09-24T00:39:53.468Z,99.99
2018-09-24T00:40:53.394Z,99.99
2018-09-24T00:42:46.062Z,99.99
2018-09-24T00:43:45.968Z,99.99
2018-09-24T00:45:39.955Z,99.99
2018-09-24T00:46:40.254Z,99.99
2018-09-24T00:48:34.174Z,99.99
2018-09-24T00:49:33.576Z,99.99
2018-09-24T00:51:26.942Z,99.99
2018-09-24T00:52:26.648Z,99.99
2018-09-24T00:54:20.085Z,99.99
2018-09-24T00:55:20.339Z,99.99
2018-09-24T00:57:13.729Z,99.99
2018-09-24T00:58:13.106Z,99.99
2018-09-24T01:00:06.139Z,99.99
2018-09-24T01:01:06.021Z,99.99
2018-09-24T01:02:59.501Z,99.99
2018-09-24T01:03:59.327Z,99.99
2018-09-24T01:05:52.778Z,99.99
2018-09-24T01:06:52.423Z,99.99
2018-09-24T01:08:46.110Z,99.99
2018-09-24T01:09:46.060Z,99.99
2018-09-24T01:11:39.451Z,99.99
2018-09-24T01:12:39.423Z,99.99
2018-09-24T01:14:32.580Z,99.99
2018-09-24T01:15:32.552Z,99.99
2018-09-24T01:17:26.311Z,99.99
2018-09-24T01:18:26.206Z,99.99
2018-09-24T01:20:19.125Z,99.99
2018-09-24T01:21:19.068Z,99.99
2018-09-24T01:23:12.003Z,99.99
2018-09-24T01:24:11.914Z,99.99
2018-09-24T01:26:04.836Z,99.99
2018-09-24T01:27:04.811Z,99.99
2018-09-24T01:28:58.150Z,99.99
2018-09-24T01:29:58.177Z,99.99
2018-09-24T01:31:51.483Z,99.99
2018-09-24T01:32:52.100Z,99.99
2018-09-24T01:34:44.386Z,99.99
2018-09-24T01:35:44.038Z,99.99
2018-09-24T01:37:38.746Z,99.99
2018-09-24T01:38:38.710Z,99.99
2018-09-24T01:40:32.101Z,99.99
2018-09-24T01:41:31.763Z,99.99
2018-09-24T01:43:25.459Z,99.99
2018-09-24T01:44:25.083Z,99.99
2018-09-24T01:46:18.784Z,99.99
2018-09-24T01:47:18.745Z,99.99
2018-09-24T01:49:12.205Z,99.99
2018-09-24T01:50:12.123Z,99.99
2018-09-24T01:52:05.300Z,99.99
2018-09-24T01:53:05.563Z,99.99
2018-09-24T01:54:59.221Z,99.99
2018-09-24T01:55:58.832Z,99.99
2018-09-24T01:57:52.206Z,99.99
2018-09-24T01:58:52.177Z,99.99
2018-09-24T02:00:45.924Z,99.99
2018-09-24T02:01:45.858Z,99.99
2018-09-24T02:03:39.246Z,99.99
2018-09-24T02:04:39.201Z,99.99
2018-09-24T02:06:32.563Z,99.99
2018-09-24T02:07:32.609Z,99.99
2018-09-24T02:09:25.942Z,99.99
2018-09-24T02:10:25.956Z,99.99
2018-09-24T02:12:19.423Z,99.99
2018-09-24T02:13:19.277Z,99.99
2018-09-24T02:15:12.732Z,99.99
2018-09-24T02:16:12.329Z,99.99
2018-09-24T02:18:06.128Z,99.99
2018-09-24T02:19:06.005Z,99.99
2018-09-24T02:21:00.390Z,99.99
2018-09-24T02:22:00.376Z,99.99
2018-09-24T02:23:53.718Z,99.99
2018-09-24T02:24:53.768Z,99.99
2018-09-24T02:26:47.147Z,99.99
2018-09-24T02:27:47.125Z,99.99
2018-09-24T02:29:40.533Z,99.99
2018-09-24T02:30:40.506Z,99.99
2018-09-24T02:32:34.915Z,99.99
2018-09-24T02:33:34.993Z,99.99
2018-09-24T02:35:28.181Z,99.99
2018-09-24T02:36:27.874Z,99.99
2018-09-24T02:38:28.293Z,99.99
2018-09-24T02:39:24.086Z,99.99
2018-09-24T02:41:17.549Z,99.99
2018-09-24T02:42:17.088Z,99.99
2018-09-24T02:44:10.281Z,99.99
2018-09-24T02:45:10.336Z,99.99
2018-09-24T02:47:04.710Z,99.99
2018-09-24T02:48:04.397Z,99.99
2018-09-24T02:49:57.569Z,99.99
2018-09-24T02:50:57.157Z,99.99
2018-09-24T02:52:51.083Z,99.99
2018-09-24T02:53:50.793Z,99.99
2018-09-24T02:55:45.441Z,99.99
2018-09-24T02:56:45.376Z,99.99
2018-09-24T02:58:38.823Z,99.99
2018-09-24T02:59:38.772Z,99.99
2018-09-24T03:01:32.266Z,99.99
2018-09-24T03:02:32.111Z,99.99
2018-09-24T03:04:26.264Z,99.99
2018-09-24T03:05:26.191Z,99.99
2018-09-24T03:07:19.455Z,99.99
2018-09-24T03:08:19.067Z,99.99
2018-09-24T03:10:12.866Z,99.99
2018-09-24T03:11:13.297Z,99.99
2018-09-24T03:13:06.073Z,99.99
2018-09-24T03:14:06.057Z,99.99
2018-09-24T03:15:59.518Z,99.99
2018-09-24T03:16:59.465Z,99.99
2018-09-24T03:18:52.795Z,99.99
2018-09-24T03:19:52.782Z,99.99
2018-09-24T03:21:46.313Z,99.99
2018-09-24T03:22:45.694Z,99.99
2018-09-24T03:24:38.794Z,99.99
2018-09-24T03:25:38.465Z,99.99
2018-09-24T03:27:32.263Z,99.99
2018-09-24T03:28:31.842Z,99.99
2018-09-24T03:30:27.073Z,99.99
2018-09-24T03:31:27.070Z,99.99
2018-09-24T03:33:20.396Z,99.99
2018-09-24T03:34:18.848Z,99.99
2018-09-24T03:36:12.337Z,99.99
2018-09-24T03:37:12.240Z,99.99
2018-09-24T03:39:05.638Z,99.99
2018-09-24T03:40:05.552Z,99.99
2018-09-24T03:41:59.002Z,99.99
2018-09-24T03:42:58.953Z,99.99
2018-09-24T03:44:52.303Z,99.99
2018-09-24T03:45:51.931Z,99.99
2018-09-24T03:47:45.201Z,99.99
2018-09-24T03:48:45.182Z,99.99
2018-09-24T03:50:39.675Z,99.99
2018-09-24T03:51:41.735Z,99.99
2018-09-24T03:53:34.417Z,99.99
2018-09-24T03:54:33.801Z,99.99
2018-09-24T03:56:28.761Z,99.99
2018-09-24T03:57:26.880Z,99.99
2018-09-24T03:59:20.563Z,99.99
2018-09-24T04:00:21.123Z,99.99
2018-09-24T04:02:13.500Z,99.99
2018-09-24T04:03:13.485Z,99.99
2018-09-24T04:05:07.552Z,99.99
2018-09-24T04:06:06.279Z,99.99
2018-09-24T04:07:59.679Z,99.99
2018-09-24T04:08:59.260Z,99.99
2018-09-24T04:10:53.950Z,99.99
2018-09-24T04:11:53.650Z,99.99
2018-09-24T04:13:47.357Z,99.99
2018-09-24T04:14:47.303Z,99.99
2018-09-24T04:16:40.369Z,99.99
2018-09-24T04:17:40.349Z,99.99
2018-09-24T04:19:34.019Z,99.99
2018-09-24T04:20:34.053Z,99.99
2018-09-24T04:22:28.674Z,99.99
2018-09-24T04:23:28.069Z,99.99
2018-09-24T04:25:22.346Z,99.99
2018-09-24T04:26:21.863Z,99.99
2018-09-24T04:28:15.217Z,99.99
2018-09-24T04:29:15.144Z,99.99
2018-09-24T04:31:08.577Z,99.99
2018-09-24T04:32:08.540Z,99.99
2018-09-24T04:34:01.479Z,99.99
2018-09-24T04:35:01.067Z,99.99
2018-09-24T04:36:54.476Z,99.99
2018-09-24T04:37:54.449Z,99.99
2018-09-24T04:39:48.239Z,99.99
2018-09-24T04:40:48.198Z,99.99
2018-09-24T04:42:41.340Z,99.99
2018-09-24T04:43:41.748Z,99.99
2018-09-24T04:45:35.856Z,99.99
2018-09-24T04:46:35.831Z,99.99
2018-09-24T04:48:28.803Z,99.99
2018-09-24T04:49:28.799Z,99.99
2018-09-24T04:51:22.078Z,99.99
2018-09-24T04:52:21.996Z,99.99
2018-09-24T04:54:16.568Z,99.99
2018-09-24T04:55:15.503Z,99.99
2018-09-24T04:57:08.476Z,99.99
2018-09-24T04:58:08.702Z,99.99
2018-09-24T05:00:03.388Z,99.99
2018-09-24T05:01:02.129Z,99.99
2018-09-24T05:02:54.970Z,99.99
2018-09-24T05:03:54.696Z,99.99
2018-09-24T05:05:49.702Z,99.99
2018-09-24T05:06:49.364Z,99.99
2018-09-24T05:08:42.767Z,99.99
2018-09-24T05:09:42.657Z,99.99
2018-09-24T05:11:35.777Z,99.99
2018-09-24T05:12:35.683Z,99.99
2018-09-24T05:14:29.132Z,99.99
2018-09-24T05:15:29.100Z,99.99
2018-09-24T05:17:21.871Z,99.99
2018-09-24T05:18:21.938Z,99.99
2018-09-24T05:20:15.327Z,99.99
2018-09-24T05:21:15.825Z,99.99
2018-09-24T05:23:09.810Z,99.99
2018-09-24T05:24:09.594Z,99.99
2018-09-24T05:26:06.620Z,99.99
2018-09-24T05:27:02.985Z,99.99
2018-09-24T05:28:57.766Z,99.99
2018-09-24T05:29:56.911Z,99.99
2018-09-24T05:31:50.627Z,99.99
2018-09-24T05:32:50.559Z,99.99
2018-09-24T05:34:44.057Z,99.99
2018-09-24T05:35:43.972Z,99.99
2018-09-24T05:37:49.385Z,99.99
2018-09-24T05:38:48.588Z,99.99
2018-09-24T05:40:42.551Z,99.99
2018-09-24T05:41:42.124Z,99.99
2018-09-24T05:43:35.409Z,99.99
2018-09-24T05:44:35.388Z,99.99
2018-09-24T05:46:28.795Z,99.99
2018-09-24T05:47:28.734Z,99.99
2018-09-24T05:49:23.143Z,99.99
2018-09-24T05:50:23.027Z,99.99
2018-09-24T05:52:16.485Z,99.99
2018-09-24T05:53:16.381Z,99.99
2018-09-24T05:55:09.824Z,99.99
2018-09-24T05:56:09.763Z,99.99
2018-09-24T05:58:03.206Z,99.99
2018-09-24T05:59:02.270Z,99.99
2018-09-24T06:00:55.540Z,99.99
2018-09-24T06:01:55.514Z,99.99
2018-09-24T06:03:50.435Z,99.99
2018-09-24T06:04:49.568Z,99.99
2018-09-24T06:06:44.308Z,99.99
2018-09-24T06:07:44.451Z,99.99
2018-09-24T06:09:37.602Z,99.99
2018-09-24T06:10:37.537Z,99.99
2018-09-24T06:12:31.035Z,99.99
2018-09-24T06:13:30.991Z,99.99
2018-09-24T06:15:25.793Z,99.99
2018-09-24T06:16:24.863Z,99.99
2018-09-24T06:18:18.792Z,99.99
2018-09-24T06:19:17.262Z,99.99
2018-09-24T06:21:11.056Z,99.99
2018-09-24T06:22:11.089Z,99.99
2018-09-24T06:24:09.081Z,99.99
2018-09-24T06:25:08.996Z,99.99
2018-09-24T06:27:03.244Z,99.99
2018-09-24T06:28:03.293Z,99.99
2018-09-24T06:29:58.186Z,99.99
2018-09-24T06:30:56.645Z,99.99
2018-09-24T06:32:50.626Z,99.99
2018-09-24T06:33:50.401Z,99.99
2018-09-24T06:35:44.377Z,99.99
2018-09-24T06:36:43.360Z,99.99
2018-09-24T06:38:38.665Z,99.99
2018-09-24T06:39:37.077Z,99.99
2018-09-24T06:41:30.415Z,99.99
2018-09-24T06:42:30.407Z,99.99
2018-09-24T06:44:23.791Z,99.99
2018-09-24T06:45:23.749Z,99.99
2018-09-24T06:47:17.141Z,99.99
2018-09-24T06:48:17.095Z,99.99
2018-09-24T06:50:10.490Z,99.99
2018-09-24T06:51:10.131Z,99.99
2018-09-24T06:53:04.601Z,99.99
2018-09-24T06:54:03.275Z,99.99
2018-09-24T06:55:56.457Z,99.99
2018-09-24T06:56:56.363Z,99.99
2018-09-24T06:58:51.191Z,99.99
2018-09-24T06:59:50.110Z,99.99
2018-09-24T07:01:43.510Z,99.99
2018-09-24T07:02:43.402Z,99.99
2018-09-24T07:04:36.915Z,99.99
2018-09-24T07:05:36.784Z,99.99
2018-09-24T07:07:30.742Z,99.99
2018-09-24T07:08:30.176Z,99.99
2018-09-24T07:10:24.269Z,99.99
2018-09-24T07:11:23.582Z,99.99
2018-09-24T07:13:16.996Z,99.99
2018-09-24T07:14:16.514Z,99.99
2018-09-24T07:16:10.207Z,99.99
2018-09-24T07:17:10.182Z,99.99
2018-09-24T07:19:03.136Z,99.99
2018-09-24T07:20:03.098Z,99.99
2018-09-24T07:21:56.532Z,99.99
2018-09-24T07:22:56.551Z,99.99
2018-09-24T07:24:49.910Z,99.99
2018-09-24T07:25:49.498Z,99.99
2018-09-24T07:27:43.267Z,99.99
2018-09-24T07:28:42.895Z,99.99
2018-09-24T07:30:36.655Z,99.99
2018-09-24T07:31:36.531Z,99.99
2018-09-24T07:33:30.013Z,99.99
2018-09-24T07:34:29.875Z,99.99
2018-09-24T07:36:23.284Z,99.99
2018-09-24T07:37:23.258Z,99.99
2018-09-24T07:39:19.240Z,99.99
2018-09-24T07:40:15.804Z,99.99
2018-09-24T07:42:09.185Z,99.99
2018-09-24T07:43:09.159Z,99.99
2018-09-24T07:45:03.523Z,99.99
2018-09-24T07:46:03.029Z,99.99
2018-09-24T07:47:57.953Z,99.99
2018-09-24T07:48:56.745Z,99.99
2018-09-24T07:50:50.248Z,99.99
2018-09-24T07:51:50.734Z,97.85
2018-09-24T07:53:43.103Z,95.56
2018-09-24T07:54:43.108Z,95.65
2018-09-24T07:56:36.463Z,97.37
2018-09-24T07:57:36.096Z,96.84
2018-09-24T07:59:30.388Z,95.17
2018-09-24T08:00:29.424Z,93.79
2018-09-24T08:02:24.189Z,94.26
2018-09-24T08:03:24.216Z,94.65
2018-09-24T08:05:17.528Z,93.40
2018-09-24T08:06:17.764Z,93.69
2018-09-24T08:08:11.113Z,94.84
2018-09-24T08:09:10.961Z,94.84
2018-09-24T08:11:06.939Z,94.55
2018-09-24T08:12:04.194Z,93.88
2018-09-24T08:13:58.675Z,95.22
2018-09-24T08:14:58.619Z,95.22
2018-09-24T08:16:52.027Z,94.45
2018-09-24T08:17:51.977Z,93.79
2018-09-24T08:19:44.833Z,92.63
2018-09-24T08:20:44.465Z,94.26
2018-09-24T08:22:39.230Z,94.26
2018-09-24T08:23:39.223Z,95.51
2018-09-24T08:25:40.289Z,95.22
2018-09-24T08:26:33.491Z,96.18
2018-09-24T08:28:26.882Z,96.18
2018-09-24T08:29:27.528Z,95.70
2018-09-24T08:31:20.393Z,95.22
2018-09-24T08:32:19.754Z,94.45
2018-09-24T08:34:13.527Z,94.45
2018-09-24T08:35:13.436Z,93.69
2018-09-24T08:37:06.847Z,92.40
2018-09-24T08:38:08.346Z,92.11
2018-09-24T08:40:03.314Z,89.47
2018-09-24T08:41:00.195Z,89.66
2018-09-24T08:42:53.107Z,88.76
2018-09-24T08:43:53.033Z,87.27
2018-09-24T08:45:45.900Z,87.08
2018-09-24T08:46:45.573Z,84.97
2018-09-24T08:48:38.807Z,86.65
2018-09-24T08:49:43.287Z,87.61
2018-09-24T08:51:34.453Z,88.18
2018-09-24T08:52:34.764Z,88.37
2018-09-24T08:54:28.071Z,88.76
2018-09-24T08:55:28.082Z,90.00
2018-09-24T08:57:20.927Z,89.67
2018-09-24T08:58:20.908Z,90.15
2018-09-24T09:00:14.308Z,89.19
2018-09-24T09:01:14.355Z,90.34
2018-09-24T09:03:07.627Z,90.53
2018-09-24T09:04:07.649Z,90.63
2018-09-24T09:06:01.057Z,91.01
2018-09-24T09:07:01.047Z,91.58
2018-09-24T09:08:54.360Z,91.58
2018-09-24T09:09:54.352Z,92.06
2018-09-24T09:11:47.831Z,92.63
2018-09-24T09:12:47.743Z,92.25
2018-09-24T09:14:41.213Z,93.12
2018-09-24T09:15:41.161Z,92.06
2018-09-24T09:17:34.496Z,91.20
2018-09-24T09:18:34.600Z,90.53
2018-09-24T09:20:27.904Z,88.76
2018-09-24T09:21:27.474Z,89.62
2018-09-24T09:23:21.317Z,85.46
2018-09-24T09:24:20.929Z,85.17
2018-09-24T09:26:14.664Z,86.55
2018-09-24T09:27:14.606Z,86.65
2018-09-24T09:29:07.576Z,84.88
2018-09-24T09:30:07.473Z,82.78
2018-09-24T09:32:00.922Z,83.93
2018-09-24T09:33:00.900Z,84.41
2018-09-24T09:34:54.316Z,86.46
2018-09-24T09:35:54.187Z,86.27
2018-09-24T09:37:50.138Z,85.98
2018-09-24T09:38:48.220Z,85.69
2018-09-24T09:40:41.963Z,83.01
2018-09-24T09:41:41.941Z,81.29
2018-09-24T09:43:35.864Z,82.24
2018-09-24T09:44:35.508Z,82.24
2018-09-24T09:46:28.347Z,80.33
2018-09-24T09:47:27.918Z,78.89
2018-09-24T09:49:21.672Z,78.32
2018-09-24T09:50:21.853Z,77.08
2018-09-24T09:52:16.519Z,78.03
2018-09-24T09:53:14.628Z,78.13
2018-09-24T09:55:08.465Z,77.31
2018-09-24T09:56:08.946Z,76.35
2018-09-24T09:58:01.747Z,75.58
2018-09-24T09:59:01.745Z,75.01
2018-09-24T10:00:55.214Z,75.01
2018-09-24T10:01:55.223Z,74.33
2018-09-24T10:03:48.605Z,74.62
2018-09-24T10:04:48.577Z,74.82
2018-09-24T10:06:41.931Z,73.90
2018-09-24T10:07:42.452Z,73.13
2018-09-24T10:09:35.301Z,72.45
2018-09-24T10:10:35.355Z,72.27
2018-09-24T10:12:28.685Z,71.34
2018-09-24T10:13:28.693Z,71.05
2018-09-24T10:15:22.255Z,70.54
2018-09-24T10:16:21.523Z,71.11
2018-09-24T10:18:15.528Z,70.64
2018-09-24T10:19:14.589Z,70.83
2018-09-24T10:21:08.339Z,71.88
2018-09-24T10:22:08.484Z,70.54
2018-09-24T10:24:07.629Z,70.12
2018-09-24T10:25:06.172Z,70.98
2018-09-24T10:26:59.646Z,73.57
2018-09-24T10:27:59.132Z,73.95
2018-09-24T10:29:52.827Z,75.68
2018-09-24T10:30:52.905Z,73.86
2018-09-24T10:32:48.525Z,74.05
2018-09-24T10:33:48.827Z,73.95
2018-09-24T10:35:41.751Z,75.01
2018-09-24T10:36:41.673Z,75.58
2018-09-24T10:38:35.073Z,76.44
2018-09-24T10:39:34.679Z,75.48
2018-09-24T10:41:28.489Z,75.20
2018-09-24T10:42:27.929Z,75.39
2018-09-24T10:44:20.831Z,77.02
2018-09-24T10:45:21.353Z,77.11
2018-09-24T10:47:14.205Z,76.15
2018-09-24T10:48:14.169Z,76.92
2018-09-24T10:50:08.156Z,78.07
2018-09-24T10:51:07.515Z,79.89
2018-09-24T10:53:00.398Z,81.52
2018-09-24T10:54:00.409Z,82.00
2018-09-24T10:55:54.430Z,83.72
2018-09-24T10:56:53.256Z,83.82
2018-09-24T10:58:47.676Z,85.21
2018-09-24T10:59:47.838Z,86.55
2018-09-24T11:01:41.588Z,86.74
2018-09-24T11:02:40.769Z,87.99
2018-09-24T11:04:34.612Z,87.99
2018-09-24T11:05:34.543Z,88.47
2018-09-24T11:07:27.900Z,88.09
2018-09-24T11:08:27.837Z,87.41
2018-09-24T11:10:22.974Z,86.94
2018-09-24T11:11:21.398Z,86.84
2018-09-24T11:13:15.666Z,88.95
2018-09-24T11:14:15.251Z,88.18
2018-09-24T11:16:09.106Z,90.19
2018-09-24T11:17:09.305Z,89.04
2018-09-24T11:19:02.306Z,85.69
2018-09-24T11:20:01.948Z,85.21
2018-09-24T11:21:55.213Z,83.97
2018-09-24T11:22:54.781Z,84.20
2018-09-24T11:24:48.136Z,83.92
2018-09-24T11:25:48.031Z,82.38
2018-09-24T11:27:40.897Z,81.71
2018-09-24T11:28:40.544Z,82.29
2018-09-24T11:30:34.252Z,81.81
2018-09-24T11:31:33.931Z,81.18
2018-09-24T11:33:27.172Z,78.78
2018-09-24T11:34:27.198Z,78.30
2018-09-24T11:36:20.571Z,78.53
2018-09-24T11:37:20.525Z,77.48
2018-09-24T11:39:21.112Z,77.48
2018-09-24T11:40:13.916Z,77.29
2018-09-24T11:42:08.898Z,77.38
2018-09-24T11:43:06.946Z,77.29
2018-09-24T11:45:02.315Z,73.93
2018-09-24T11:46:00.684Z,73.16
2018-09-24T11:47:54.061Z,71.05
2018-09-24T11:48:54.075Z,71.25
2018-09-24T11:50:46.948Z,70.90
2018-09-24T11:51:46.577Z,70.29
2018-09-24T11:53:40.792Z,70.13
2018-09-24T11:54:39.704Z,70.13
2018-09-24T11:56:33.445Z,70.61
2018-09-24T11:57:33.471Z,68.98
2018-09-24T11:59:27.054Z,68.79
2018-09-24T12:00:26.767Z,68.40
2018-09-24T12:02:20.856Z,68.12
2018-09-24T12:03:20.222Z,68.88
2018-09-24T12:05:13.623Z,68.30
2018-09-24T12:06:13.254Z,67.63
2018-09-24T12:08:08.524Z,66.74
2018-09-24T12:09:06.999Z,67.50
2018-09-24T12:11:01.275Z,68.08
2018-09-24T12:12:01.522Z,67.41
2018-09-24T12:13:54.955Z,66.67
2018-09-24T12:14:54.619Z,67.73
2018-09-24T12:16:47.555Z,68.02
2018-09-24T12:17:47.505Z,66.96
2018-09-24T12:19:42.039Z,66.29
2018-09-24T12:20:41.648Z,66.39
2018-09-24T12:22:35.301Z,66.55
2018-09-24T12:23:35.270Z,66.35
2018-09-24T12:25:32.225Z,66.55
2018-09-24T12:26:29.730Z,67.12
2018-09-24T12:28:23.136Z,67.18
2018-09-24T12:29:22.659Z,67.57
2018-09-24T12:31:16.482Z,68.81
2018-09-24T12:32:15.929Z,69.39
2018-09-24T12:34:09.887Z,69.10
2018-09-24T12:35:09.839Z,69.96
2018-09-24T12:37:02.677Z,70.54
2018-09-24T12:38:02.677Z,70.92
2018-09-24T12:39:57.113Z,70.25
2018-09-24T12:40:55.692Z,70.25
2018-09-24T12:42:48.972Z,70.54
2018-09-24T12:43:48.878Z,71.02
2018-09-24T12:45:42.761Z,70.83
2018-09-24T12:46:42.279Z,70.60
2018-09-24T12:48:35.927Z,71.08
2018-09-24T12:49:35.631Z,71.17
2018-09-24T12:51:28.611Z,71.94
2018-09-24T12:52:28.443Z,72.42
2018-09-24T12:54:21.543Z,74.08
2018-09-24T12:55:21.400Z,74.72
2018-09-24T12:57:14.983Z,74.05
2018-09-24T12:58:14.419Z,72.13
2018-09-24T13:00:07.328Z,73.76
2018-09-24T13:01:07.244Z,72.90
2018-09-24T13:03:00.335Z,72.52
2018-09-24T13:04:00.594Z,72.29
2018-09-24T13:05:54.613Z,74.58
2018-09-24T13:06:54.937Z,76.40
2018-09-24T13:08:48.329Z,78.42
2018-09-24T13:09:48.354Z,78.70
2018-09-24T13:11:41.669Z,80.58
2018-09-24T13:12:41.339Z,81.00
2018-09-24T13:14:35.665Z,81.25
2018-09-24T13:15:35.080Z,81.05
2018-09-24T13:17:28.935Z,82.30
2018-09-24T13:18:28.459Z,82.59
2018-09-24T13:20:22.442Z,82.20
2018-09-24T13:21:22.335Z,82.11
2018-09-24T13:23:14.865Z,82.40
2018-09-24T13:24:14.395Z,81.63
2018-09-24T13:26:08.156Z,80.04
2018-09-24T13:27:08.265Z,79.72
2018-09-24T13:29:02.146Z,79.28
2018-09-24T13:30:01.221Z,78.66
2018-09-24T13:31:54.900Z,77.13
2018-09-24T13:32:54.498Z,76.08
2018-09-24T13:34:48.269Z,76.02
2018-09-24T13:35:48.219Z,75.35
2018-09-24T13:37:41.676Z,74.87
2018-09-24T13:38:41.267Z,74.58
2018-09-24T13:40:34.624Z,73.24
2018-09-24T13:41:34.582Z,72.96
2018-09-24T13:43:28.039Z,73.09
2018-09-24T13:44:27.883Z,72.03
2018-09-24T13:46:25.301Z,71.17
2018-09-24T13:47:23.796Z,70.70
2018-09-24T13:49:17.275Z,69.93
2018-09-24T13:50:17.204Z,69.20
2018-09-24T13:52:10.605Z,69.29
2018-09-24T13:53:10.593Z,70.06
2018-09-24T13:55:03.954Z,70.64
2018-09-24T13:56:03.916Z,70.73
2018-09-24T13:57:56.945Z,71.27
2018-09-24T13:58:57.518Z,71.46
2018-09-24T14:00:50.272Z,72.42
2018-09-24T14:01:50.480Z,72.71
2018-09-24T14:03:43.651Z,73.47
2018-09-24T14:04:43.252Z,74.01
2018-09-24T14:06:37.079Z,75.07
2018-09-24T14:07:36.954Z,75.64
2018-09-24T14:09:32.350Z,76.21
2018-09-24T14:10:29.860Z,76.79
2018-09-24T14:12:23.348Z,77.94
2018-09-24T14:13:23.298Z,78.13
2018-09-24T14:15:22.616Z,78.32
2018-09-24T14:16:18.220Z,78.03
2018-09-24T14:18:10.845Z,77.94
2018-09-24T14:19:10.431Z,77.46
2018-09-24T14:21:03.879Z,76.65
2018-09-24T14:22:03.275Z,76.69
2018-09-24T14:23:59.523Z,76.21
2018-09-24T14:24:57.980Z,76.60
2018-09-24T14:26:51.445Z,76.50
2018-09-24T14:27:51.389Z,76.60
2018-09-24T14:29:44.227Z,75.39
2018-09-24T14:30:44.227Z,75.64
2018-09-24T14:32:37.861Z,74.43
2018-09-24T14:33:37.604Z,74.52
2018-09-24T14:35:31.021Z,75.10
2018-09-24T14:36:31.648Z,75.01
2018-09-24T14:38:23.929Z,74.05
2018-09-24T14:39:23.866Z,74.15
2018-09-24T14:41:17.665Z,74.82
2018-09-24T14:42:17.256Z,73.95
2018-09-24T14:44:10.593Z,71.75
2018-09-24T14:45:10.194Z,70.50
2018-09-24T14:47:03.981Z,70.50
2018-09-24T14:48:03.900Z,70.60
2018-09-24T14:49:57.327Z,70.89
2018-09-24T14:50:57.325Z,71.27
2018-09-24T14:52:50.659Z,72.42
2018-09-24T14:53:50.740Z,72.42
2018-09-24T14:55:45.104Z,73.24
2018-09-24T14:56:45.022Z,73.47
2018-09-24T14:58:38.201Z,72.80
2018-09-24T14:59:37.935Z,70.37
2018-09-24T15:01:33.892Z,71.23
2018-09-24T15:02:33.446Z,71.17
2018-09-24T15:04:27.196Z,71.81
2018-09-24T15:05:27.140Z,72.29
2018-09-24T15:07:20.608Z,71.91
2018-09-24T15:08:20.557Z,70.95
2018-09-24T15:10:13.545Z,69.03
2018-09-24T15:11:13.545Z,68.65
2018-09-24T15:13:07.232Z,66.83
2018-09-24T15:14:06.740Z,66.74
2018-09-24T15:16:12.345Z,66.45
2018-09-24T15:17:11.763Z,66.35
2018-09-24T15:19:05.170Z,66.35
2018-09-24T15:20:04.789Z,66.41
2018-09-24T15:21:59.562Z,67.18
2018-09-24T15:22:59.444Z,67.85
2018-09-24T15:24:52.865Z,68.52
2018-09-24T15:25:52.539Z,68.71
2018-09-24T15:27:46.375Z,68.52
2018-09-24T15:28:46.274Z,69.29
2018-09-24T15:30:39.650Z,69.86
2018-09-24T15:31:39.607Z,70.53
2018-09-24T15:33:32.265Z,70.91
2018-09-24T15:34:32.501Z,71.11
2018-09-24T15:36:25.588Z,71.77
2018-09-24T15:37:25.612Z,71.97
2018-09-24T15:39:18.742Z,72.79
2018-09-24T15:40:18.542Z,72.69
2018-09-24T15:42:12.168Z,73.30
2018-09-24T15:43:12.721Z,72.79
2018-09-24T15:45:05.694Z,74.04
2018-09-24T15:46:05.592Z,73.97
2018-09-24T15:48:03.420Z,74.32
2018-09-24T15:48:59.803Z,74.70
2018-09-24T15:50:54.288Z,75.37
2018-09-24T15:51:53.765Z,75.76
2018-09-24T15:53:47.291Z,75.95
2018-09-24T15:54:46.166Z,76.14
2018-09-24T15:56:39.949Z,76.37
2018-09-24T15:57:39.680Z,76.23
2018-09-24T15:59:36.535Z,76.62
2018-09-24T16:00:33.928Z,76.81
2018-09-24T16:02:27.634Z,75.85
2018-09-24T16:03:27.668Z,76.71
2018-09-24T16:05:21.136Z,77.57
2018-09-24T16:06:21.653Z,77.67
2018-09-24T16:08:14.501Z,78.14
2018-09-24T16:09:14.314Z,78.72
2018-09-24T16:11:07.415Z,79.58
2018-09-24T16:12:08.313Z,79.68
2018-09-24T16:14:01.730Z,80.06
2018-09-24T16:15:01.648Z,80.73
2018-09-24T16:16:54.994Z,80.54
2018-09-24T16:17:54.956Z,81.02
2018-09-24T16:19:48.965Z,80.73
2018-09-24T16:20:48.006Z,80.73
2018-09-24T16:22:41.709Z,80.63
2018-09-24T16:23:41.737Z,80.54
2018-09-24T16:25:36.754Z,79.87
2018-09-24T16:26:36.099Z,79.87
2018-09-24T16:28:29.549Z,79.77
2018-09-24T16:29:29.163Z,79.87
2018-09-24T16:31:22.886Z,78.14
2018-09-24T16:32:22.800Z,78.05
2018-09-24T16:34:16.333Z,78.43
2018-09-24T16:35:18.104Z,78.24
2018-09-24T16:37:15.038Z,79.39
2018-09-24T16:38:09.784Z,79.96
2018-09-24T16:40:05.955Z,78.34
2018-09-24T16:41:02.629Z,78.24
2018-09-24T16:42:56.513Z,78.63
2018-09-24T16:43:55.937Z,79.73
2018-09-24T16:45:49.734Z,80.02
2018-09-24T16:46:49.665Z,80.59
2018-09-24T16:48:45.806Z,81.26
2018-09-24T16:49:42.673Z,82.03
2018-09-24T16:51:36.111Z,82.12
2018-09-24T16:52:36.352Z,82.79
2018-09-24T16:54:29.852Z,84.03
2018-09-24T16:55:29.784Z,83.84
2018-09-24T16:57:22.622Z,85.38
2018-09-24T16:58:22.617Z,85.85
2018-09-24T17:00:16.067Z,86.90
2018-09-24T17:01:15.703Z,86.90
2018-09-24T17:03:09.696Z,87.43
2018-09-24T17:04:09.075Z,88.20
2018-09-24T17:06:02.927Z,88.87
2018-09-24T17:07:02.442Z,89.06
2018-09-24T17:08:57.516Z,90.01
2018-09-24T17:09:56.199Z,90.20
2018-09-24T17:11:49.102Z,91.35
2018-09-24T17:12:48.964Z,91.06
2018-09-24T17:14:42.949Z,91.93
2018-09-24T17:15:41.886Z,92.50
2018-09-24T17:17:36.256Z,93.45
2018-09-24T17:18:35.798Z,94.12
2018-09-24T17:20:32.028Z,94.51
2018-09-24T17:21:30.163Z,95.27
2018-09-24T17:23:22.496Z,95.94
2018-09-24T17:24:22.037Z,96.22
2018-09-24T17:26:15.400Z,97.08
2018-09-24T17:27:15.381Z,97.18
2018-09-24T17:29:08.735Z,97.66
2018-09-24T17:30:08.776Z,98.52
2018-09-24T17:32:02.151Z,98.47
2018-09-24T17:33:02.048Z,99.43
2018-09-24T17:34:55.588Z,99.23
2018-09-24T17:35:55.492Z,99.52
2018-09-24T17:37:48.405Z,99.23
2018-09-24T17:38:48.009Z,99.71
2018-09-24T17:40:42.347Z,99.99
2018-09-24T17:41:41.915Z,99.99
2018-09-24T17:43:36.163Z,99.99
2018-09-24T17:44:35.610Z,99.99
2018-09-24T17:46:30.531Z,99.99
2018-09-24T17:47:28.751Z,99.99
2018-09-24T17:49:22.378Z,99.99
2018-09-24T17:50:22.419Z,99.99
2018-09-24T17:52:16.372Z,99.99
2018-09-24T17:53:15.388Z,99.99
2018-09-24T17:55:13.715Z,99.99
2018-09-24T17:56:08.563Z,99.99
2018-09-24T17:58:02.003Z,99.99
2018-09-24T17:59:01.620Z,99.99
2018-09-24T18:00:57.133Z,99.99
2018-09-24T18:01:55.936Z,99.99
2018-09-24T18:03:48.714Z,99.99
2018-09-24T18:04:48.706Z,99.99
2018-09-24T18:06:42.103Z,99.99
2018-09-24T18:07:42.630Z,99.99
2018-09-24T18:09:35.433Z,99.99
2018-09-24T18:10:35.136Z,99.99
2018-09-24T18:12:28.873Z,99.99
2018-09-24T18:13:28.745Z,99.99
2018-09-24T18:15:26.941Z,99.99
2018-09-24T18:16:22.195Z,99.99
2018-09-24T18:18:18.125Z,99.99
2018-09-24T18:19:18.056Z,99.99
2018-09-24T18:21:11.397Z,99.99
2018-09-24T18:22:11.018Z,99.99
2018-09-24T18:24:04.711Z,99.99
2018-09-24T18:26:18.746Z,99.99
2018-09-24T18:27:18.306Z,99.99
2018-09-24T18:29:10.761Z,99.99
2018-09-24T18:30:10.435Z,99.99
2018-09-24T18:32:07.615Z,99.99
2018-09-24T18:33:03.911Z,99.99
2018-09-24T18:34:58.373Z,99.99
2018-09-24T18:35:56.971Z,99.99
2018-09-24T18:37:50.662Z,99.99